sensor_id;sensor_type;location;lat;lon;timestamp;temperature;humidity
45383;DHT22;42455;51.660;5.824;2022-10-01T00:04:43;14.1;92.0
45383;DHT22;42455;51.660;5.824;2022-10-01T00:09:49;14.1;92.5
45383;DHT22;42455;51.660;5.824;2022-10-01T00:14:55;14.0;92.5
45383;DHT22;42455;51.660;5.824;2022-10-01T00:20:01;14.0;92.5
45383;DHT22;42455;51.660;5.824;2022-10-01T00:25:08;14.0;93.0
45383;DHT22;42455;51.660;5.824;2022-10-01T00:30:14;13.9;93.0
45383;DHT22;42455;51.660;5.824;2022-10-01T00:35:20;13.9;93.5
45383;DHT22;42455;51.660;5.824;2022-10-01T00:40:26;13.9;93.5
45383;DHT22;42455;51.660;5.824;2022-10-01T00:45:32;13.9;94.0
45383;DHT22;42455;51.660;5.824;2022-10-01T00:50:37;13.9;94.0
45383;DHT22;42455;51.660;5.824;2022-10-01T00:55:49;13.9;94.0
45383;DHT22;42455;51.660;5.824;2022-10-01T01:00:50;13.9;94.0
45383;DHT22;42455;51.660;5.824;2022-10-01T01:05:55;13.9;94.5
45383;DHT22;42455;51.660;5.824;2022-10-01T01:11:07;13.9;94.5
45383;DHT22;42455;51.660;5.824;2022-10-01T01:16:25;13.9;94.5
45383;DHT22;42455;51.660;5.824;2022-10-01T01:21:38;13.8;95.0
45383;DHT22;42455;51.660;5.824;2022-10-01T01:26:24;13.8;95.0
45383;DHT22;42455;51.660;5.824;2022-10-01T01:31:36;13.8;95.0
45383;DHT22;42455;51.660;5.824;2022-10-01T01:36:33;13.8;95.0
45383;DHT22;42455;51.660;5.824;2022-10-01T01:41:43;13.8;95.0
45383;DHT22;42455;51.660;5.824;2022-10-01T01:46:45;13.7;95.5
45383;DHT22;42455;51.660;5.824;2022-10-01T01:52:02;13.7;95.5
45383;DHT22;42455;51.660;5.824;2022-10-01T01:56:57;13.7;95.5
45383;DHT22;42455;51.660;5.824;2022-10-01T02:02:03;13.7;96.0
45383;DHT22;42455;51.660;5.824;2022-10-01T02:07:51;13.7;96.0
45383;DHT22;42455;51.660;5.824;2022-10-01T02:12:28;13.7;96.0
45383;DHT22;42455;51.660;5.824;2022-10-01T02:17:39;13.7;96.0
45383;DHT22;42455;51.660;5.824;2022-10-01T02:22:34;13.7;96.5
45383;DHT22;42455;51.660;5.824;2022-10-01T02:27:40;13.7;96.5
45383;DHT22;42455;51.660;5.824;2022-10-01T02:32:43;13.7;97.0
45383;DHT22;42455;51.660;5.824;2022-10-01T02:37:48;13.7;97.0
45383;DHT22;42455;51.660;5.824;2022-10-01T02:42:54;13.7;97.0
45383;DHT22;42455;51.660;5.824;2022-10-01T02:48:00;13.7;97.0
45383;DHT22;42455;51.660;5.824;2022-10-01T02:53:08;13.6;97.0
45383;DHT22;42455;51.660;5.824;2022-10-01T02:58:10;13.7;97.0
45383;DHT22;42455;51.660;5.824;2022-10-01T03:03:16;13.7;97.0
45383;DHT22;42455;51.660;5.824;2022-10-01T03:08:22;13.7;97.5
45383;DHT22;42455;51.660;5.824;2022-10-01T03:13:28;13.7;97.5
45383;DHT22;42455;51.660;5.824;2022-10-01T03:18:35;13.7;97.5
45383;DHT22;42455;51.660;5.824;2022-10-01T03:23:41;13.7;97.5
45383;DHT22;42455;51.660;5.824;2022-10-01T03:28:47;13.7;97.5
45383;DHT22;42455;51.660;5.824;2022-10-01T03:33:53;13.7;98.0
45383;DHT22;42455;51.660;5.824;2022-10-01T03:38:59;13.7;98.0
45383;DHT22;42455;51.660;5.824;2022-10-01T03:44:06;13.8;98.0
45383;DHT22;42455;51.660;5.824;2022-10-01T03:49:12;13.8;98.0
45383;DHT22;42455;51.660;5.824;2022-10-01T03:54:18;13.8;98.0
45383;DHT22;42455;51.660;5.824;2022-10-01T03:59:24;13.8;98.0
45383;DHT22;42455;51.660;5.824;2022-10-01T04:04:31;13.9;98.5
45383;DHT22;42455;51.660;5.824;2022-10-01T04:09:37;13.9;98.0
45383;DHT22;42455;51.660;5.824;2022-10-01T04:14:43;13.9;98.5
45383;DHT22;42455;51.660;5.824;2022-10-01T04:19:49;13.9;98.0
45383;DHT22;42455;51.660;5.824;2022-10-01T04:24:55;13.9;98.0
45383;DHT22;42455;51.660;5.824;2022-10-01T04:30:02;14.0;98.0
45383;DHT22;42455;51.660;5.824;2022-10-01T04:35:08;14.0;98.5
45383;DHT22;42455;51.660;5.824;2022-10-01T04:40:14;14.0;98.5
45383;DHT22;42455;51.660;5.824;2022-10-01T04:45:19;14.1;98.5
45383;DHT22;42455;51.660;5.824;2022-10-01T04:50:26;14.1;98.5
45383;DHT22;42455;51.660;5.824;2022-10-01T04:55:31;14.2;98.5
45383;DHT22;42455;51.660;5.824;2022-10-01T05:00:37;14.2;98.5
45383;DHT22;42455;51.660;5.824;2022-10-01T05:05:42;14.3;98.5
45383;DHT22;42455;51.660;5.824;2022-10-01T05:10:48;14.3;98.5
45383;DHT22;42455;51.660;5.824;2022-10-01T05:15:55;14.4;98.5
45383;DHT22;42455;51.660;5.824;2022-10-01T05:21:03;14.4;98.5
45383;DHT22;42455;51.660;5.824;2022-10-01T05:26:08;14.4;98.5
45383;DHT22;42455;51.660;5.824;2022-10-01T05:31:13;14.4;98.5
45383;DHT22;42455;51.660;5.824;2022-10-01T05:36:19;14.5;98.5
45383;DHT22;42455;51.660;5.824;2022-10-01T05:41:25;14.5;98.5
45383;DHT22;42455;51.660;5.824;2022-10-01T05:46:32;14.5;98.5
45383;DHT22;42455;51.660;5.824;2022-10-01T05:51:38;14.6;98.5
45383;DHT22;42455;51.660;5.824;2022-10-01T05:56:44;14.6;98.5
45383;DHT22;42455;51.660;5.824;2022-10-01T06:01:50;14.6;98.5
45383;DHT22;42455;51.660;5.824;2022-10-01T06:06:57;14.7;98.5
45383;DHT22;42455;51.660;5.824;2022-10-01T06:12:03;14.7;98.5
45383;DHT22;42455;51.660;5.824;2022-10-01T06:17:09;14.8;98.5
45383;DHT22;42455;51.660;5.824;2022-10-01T06:22:15;14.8;98.5
45383;DHT22;42455;51.660;5.824;2022-10-01T06:27:21;14.8;98.5
45383;DHT22;42455;51.660;5.824;2022-10-01T06:32:28;14.9;98.5
45383;DHT22;42455;51.660;5.824;2022-10-01T06:37:35;14.9;98.5
45383;DHT22;42455;51.660;5.824;2022-10-01T06:42:45;15.0;98.5
45383;DHT22;42455;51.660;5.824;2022-10-01T06:47:51;15.0;98.5
45383;DHT22;42455;51.660;5.824;2022-10-01T06:52:51;15.1;98.5
45383;DHT22;42455;51.660;5.824;2022-10-01T06:57:59;15.2;98.5
45383;DHT22;42455;51.660;5.824;2022-10-01T07:03:04;15.2;98.5
45383;DHT22;42455;51.660;5.824;2022-10-01T07:08:10;15.3;98.5
45383;DHT22;42455;51.660;5.824;2022-10-01T07:13:17;15.5;98.5
45383;DHT22;42455;51.660;5.824;2022-10-01T07:18:22;15.6;98.5
45383;DHT22;42455;51.660;5.824;2022-10-01T07:23:28;15.7;98.5
45383;DHT22;42455;51.660;5.824;2022-10-01T07:28:34;15.7;98.5
45383;DHT22;42455;51.660;5.824;2022-10-01T07:33:40;15.8;98.5
45383;DHT22;42455;51.660;5.824;2022-10-01T07:38:48;15.9;98.5
45383;DHT22;42455;51.660;5.824;2022-10-01T07:43:53;16.0;98.5
45383;DHT22;42455;51.660;5.824;2022-10-01T07:48:59;16.1;98.5
45383;DHT22;42455;51.660;5.824;2022-10-01T07:54:05;16.3;98.5
45383;DHT22;42455;51.660;5.824;2022-10-01T07:59:11;16.5;98.5
45383;DHT22;42455;51.660;5.824;2022-10-01T08:04:18;16.6;98.5
45383;DHT22;42455;51.660;5.824;2022-10-01T08:09:24;16.7;98.5
45383;DHT22;42455;51.660;5.824;2022-10-01T08:14:30;16.7;98.5
45383;DHT22;42455;51.660;5.824;2022-10-01T08:19:36;16.7;98.5
45383;DHT22;42455;51.660;5.824;2022-10-01T08:24:42;16.7;98.5
45383;DHT22;42455;51.660;5.824;2022-10-01T08:29:49;16.7;98.5
45383;DHT22;42455;51.660;5.824;2022-10-01T08:34:55;16.7;98.5
45383;DHT22;42455;51.660;5.824;2022-10-01T08:40:01;16.8;98.5
45383;DHT22;42455;51.660;5.824;2022-10-01T08:45:10;16.8;98.5
45383;DHT22;42455;51.660;5.824;2022-10-01T08:50:16;16.9;98.5
45383;DHT22;42455;51.660;5.824;2022-10-01T08:55:23;16.9;98.5
45383;DHT22;42455;51.660;5.824;2022-10-01T09:00:26;16.9;98.5
45383;DHT22;42455;51.660;5.824;2022-10-01T09:05:37;16.8;98.5
45383;DHT22;42455;51.660;5.824;2022-10-01T09:10:59;16.8;98.5
45383;DHT22;42455;51.660;5.824;2022-10-01T09:16:24;16.9;98.5
45383;DHT22;42455;51.660;5.824;2022-10-01T09:20:58;16.9;98.5
45383;DHT22;42455;51.660;5.824;2022-10-01T09:25:56;16.9;98.5
45383;DHT22;42455;51.660;5.824;2022-10-01T09:31:13;17.0;98.5
45383;DHT22;42455;51.660;5.824;2022-10-01T09:36:13;17.2;98.5
45383;DHT22;42455;51.660;5.824;2022-10-01T09:41:14;17.5;98.5
45383;DHT22;42455;51.660;5.824;2022-10-01T09:51:31;17.8;98.5
45383;DHT22;42455;51.660;5.824;2022-10-01T09:56:35;17.8;98.5
45383;DHT22;42455;51.660;5.824;2022-10-01T10:01:43;17.9;98.5
45383;DHT22;42455;51.660;5.824;2022-10-01T10:06:44;18.2;98.5
45383;DHT22;42455;51.660;5.824;2022-10-01T10:11:50;18.4;98.0
45383;DHT22;42455;51.660;5.824;2022-10-01T10:16:56;18.4;97.5
45383;DHT22;42455;51.660;5.824;2022-10-01T10:22:12;18.6;97.0
45383;DHT22;42455;51.660;5.824;2022-10-01T10:27:20;18.8;97.0
45383;DHT22;42455;51.660;5.824;2022-10-01T10:32:21;19.1;96.5
45383;DHT22;42455;51.660;5.824;2022-10-01T10:37:26;19.2;95.5
45383;DHT22;42455;51.660;5.824;2022-10-01T10:42:27;19.3;95.0
45383;DHT22;42455;51.660;5.824;2022-10-01T10:47:44;19.3;94.5
45383;DHT22;42455;51.660;5.824;2022-10-01T10:52:38;19.4;94.0
45383;DHT22;42455;51.660;5.824;2022-10-01T10:57:45;19.6;93.5
45383;DHT22;42455;51.660;5.824;2022-10-01T11:02:53;19.7;92.5
45383;DHT22;42455;51.660;5.824;2022-10-01T11:08:00;20.0;92.5
45383;DHT22;42455;51.660;5.824;2022-10-01T11:14:02;20.2;92.0
45383;DHT22;42455;51.660;5.824;2022-10-01T11:20:02;20.4;91.0
45383;DHT22;42455;51.660;5.824;2022-10-01T11:26:01;20.5;90.5
45383;DHT22;42455;51.660;5.824;2022-10-01T11:30:27;20.5;89.0
45383;DHT22;42455;51.660;5.824;2022-10-01T11:35:52;20.5;88.5
45383;DHT22;42455;51.660;5.824;2022-10-01T11:39:35;20.6;88.0
45383;DHT22;42455;51.660;5.824;2022-10-01T11:44:01;20.7;87.0
45383;DHT22;42455;51.660;5.824;2022-10-01T11:48:49;20.6;85.5
45383;DHT22;42455;51.660;5.824;2022-10-01T11:53:58;20.5;86.0
45383;DHT22;42455;51.660;5.824;2022-10-01T11:59:03;20.5;85.5
45383;DHT22;42455;51.660;5.824;2022-10-01T12:04:08;20.6;86.0
45383;DHT22;42455;51.660;5.824;2022-10-01T12:09:13;20.6;85.5
45383;DHT22;42455;51.660;5.824;2022-10-01T12:14:21;20.5;84.5
45383;DHT22;42455;51.660;5.824;2022-10-01T12:35:11;19.5;85.0
45383;DHT22;42455;51.660;5.824;2022-10-01T12:40:37;19.3;85.0
45383;DHT22;42455;51.660;5.824;2022-10-01T12:46:11;19.1;86.0
45383;DHT22;42455;51.660;5.824;2022-10-01T12:51:31;19.2;87.0
45383;DHT22;42455;51.660;5.824;2022-10-01T12:56:05;19.5;86.5
45383;DHT22;42455;51.660;5.824;2022-10-01T13:01:06;19.7;85.0
45383;DHT22;42455;51.660;5.824;2022-10-01T13:07:19;19.9;85.0
45383;DHT22;42455;51.660;5.824;2022-10-01T13:13:00;20.0;83.0
45383;DHT22;42455;51.660;5.824;2022-10-01T13:16:20;20.2;82.0
45383;DHT22;42455;51.660;5.824;2022-10-01T13:21:28;20.2;81.0
45383;DHT22;42455;51.660;5.824;2022-10-01T13:26:24;20.3;79.5
45383;DHT22;42455;51.660;5.824;2022-10-01T13:31:35;20.4;79.5
45383;DHT22;42455;51.660;5.824;2022-10-01T13:36:33;20.3;79.0
45383;DHT22;42455;51.660;5.824;2022-10-01T13:41:38;20.2;78.5
45383;DHT22;42455;51.660;5.824;2022-10-01T13:46:57;20.0;78.5
45383;DHT22;42455;51.660;5.824;2022-10-01T13:51:50;19.8;78.0
45383;DHT22;42455;51.660;5.824;2022-10-01T13:57:06;19.7;77.0
45383;DHT22;42455;51.660;5.824;2022-10-01T14:02:27;19.6;78.0
45383;DHT22;42455;51.660;5.824;2022-10-01T14:07:16;19.7;78.0
45383;DHT22;42455;51.660;5.824;2022-10-01T14:12:19;19.7;78.0
45383;DHT22;42455;51.660;5.824;2022-10-01T14:17:25;19.7;77.5
45383;DHT22;42455;51.660;5.824;2022-10-01T14:22:52;19.7;76.5
45383;DHT22;42455;51.660;5.824;2022-10-01T14:27:46;19.6;76.5
45383;DHT22;42455;51.660;5.824;2022-10-01T14:33:05;19.5;77.0
45383;DHT22;42455;51.660;5.824;2022-10-01T14:37:46;19.6;77.5
45383;DHT22;42455;51.660;5.824;2022-10-01T14:42:57;19.6;77.0
45383;DHT22;42455;51.660;5.824;2022-10-01T14:47:59;19.7;78.0
45383;DHT22;42455;51.660;5.824;2022-10-01T14:53:05;19.8;78.0
45383;DHT22;42455;51.660;5.824;2022-10-01T14:58:20;19.8;78.5
45383;DHT22;42455;51.660;5.824;2022-10-01T15:03:16;19.9;78.5
45383;DHT22;42455;51.660;5.824;2022-10-01T15:08:31;19.9;78.0
45383;DHT22;42455;51.660;5.824;2022-10-01T15:13:31;20.0;78.0
45383;DHT22;42455;51.660;5.824;2022-10-01T15:18:34;20.1;78.5
45383;DHT22;42455;51.660;5.824;2022-10-01T15:23:40;20.2;78.0
45383;DHT22;42455;51.660;5.824;2022-10-01T15:28:47;20.2;77.5
45383;DHT22;42455;51.660;5.824;2022-10-01T15:33:53;20.2;77.0
45383;DHT22;42455;51.660;5.824;2022-10-01T15:39:00;20.1;77.0
45383;DHT22;42455;51.660;5.824;2022-10-01T15:44:35;20.1;77.0
45383;DHT22;42455;51.660;5.824;2022-10-01T15:49:16;20.0;77.0
45383;DHT22;42455;51.660;5.824;2022-10-01T15:54:18;19.9;77.0
45383;DHT22;42455;51.660;5.824;2022-10-01T15:59:24;19.9;77.5
45383;DHT22;42455;51.660;5.824;2022-10-01T16:04:30;19.8;77.5
45383;DHT22;42455;51.660;5.824;2022-10-01T16:09:50;19.7;78.0
45383;DHT22;42455;51.660;5.824;2022-10-01T16:14:56;19.6;78.0
45383;DHT22;42455;51.660;5.824;2022-10-01T16:19:49;19.5;78.0
45383;DHT22;42455;51.660;5.824;2022-10-01T16:24:56;19.4;78.0
45383;DHT22;42455;51.660;5.824;2022-10-01T16:30:08;19.3;78.5
45383;DHT22;42455;51.660;5.824;2022-10-01T16:35:24;19.2;79.5
45383;DHT22;42455;51.660;5.824;2022-10-01T16:40:14;19.1;79.5
45383;DHT22;42455;51.660;5.824;2022-10-01T16:45:20;19.0;80.0
45383;DHT22;42455;51.660;5.824;2022-10-01T16:50:25;18.8;80.5
45383;DHT22;42455;51.660;5.824;2022-10-01T16:55:31;18.7;80.5
45383;DHT22;42455;51.660;5.824;2022-10-01T17:00:37;18.6;81.0
45383;DHT22;42455;51.660;5.824;2022-10-01T17:05:42;18.5;81.0
45383;DHT22;42455;51.660;5.824;2022-10-01T17:10:50;18.4;81.5
45383;DHT22;42455;51.660;5.824;2022-10-01T17:15:54;18.3;82.0
45383;DHT22;42455;51.660;5.824;2022-10-01T17:21:01;18.2;82.0
45383;DHT22;42455;51.660;5.824;2022-10-01T17:26:07;18.0;82.0
45383;DHT22;42455;51.660;5.824;2022-10-01T17:31:13;17.9;82.5
45383;DHT22;42455;51.660;5.824;2022-10-01T17:36:19;17.8;82.5
45383;DHT22;42455;51.660;5.824;2022-10-01T17:41:26;17.7;83.0
45383;DHT22;42455;51.660;5.824;2022-10-01T17:46:31;17.6;83.5
45383;DHT22;42455;51.660;5.824;2022-10-01T17:51:38;17.5;83.5
45383;DHT22;42455;51.660;5.824;2022-10-01T17:56:44;17.4;84.0
45383;DHT22;42455;51.660;5.824;2022-10-01T18:01:50;17.3;84.5
45383;DHT22;42455;51.660;5.824;2022-10-01T18:06:56;17.2;84.5
45383;DHT22;42455;51.660;5.824;2022-10-01T18:12:03;17.1;84.5
45383;DHT22;42455;51.660;5.824;2022-10-01T18:17:08;17.0;85.0
45383;DHT22;42455;51.660;5.824;2022-10-01T18:22:15;16.8;85.0
45383;DHT22;42455;51.660;5.824;2022-10-01T18:27:21;16.8;85.5
45383;DHT22;42455;51.660;5.824;2022-10-01T18:32:31;16.7;86.0
45383;DHT22;42455;51.660;5.824;2022-10-01T18:37:49;16.6;86.0
45383;DHT22;42455;51.660;5.824;2022-10-01T18:42:47;16.5;86.0
45383;DHT22;42455;51.660;5.824;2022-10-01T18:48:55;16.4;86.0
45383;DHT22;42455;51.660;5.824;2022-10-01T18:54:32;16.3;86.5
45383;DHT22;42455;51.660;5.824;2022-10-01T19:00:14;16.2;87.0
45383;DHT22;42455;51.660;5.824;2022-10-01T19:05:23;16.2;87.0
45383;DHT22;42455;51.660;5.824;2022-10-01T19:11:33;16.1;87.5
45383;DHT22;42455;51.660;5.824;2022-10-01T19:16:57;16.1;88.0
45383;DHT22;42455;51.660;5.824;2022-10-01T19:22:17;16.1;88.0
45383;DHT22;42455;51.660;5.824;2022-10-01T19:27:16;16.0;88.0
45383;DHT22;42455;51.660;5.824;2022-10-01T19:30:20;16.0;88.5
45383;DHT22;42455;51.660;5.824;2022-10-01T19:33:55;15.9;88.5
45383;DHT22;42455;51.660;5.824;2022-10-01T19:38:47;15.9;88.5
45383;DHT22;42455;51.660;5.824;2022-10-01T19:43:59;15.8;88.5
45383;DHT22;42455;51.660;5.824;2022-10-01T19:49:16;15.7;89.0
45383;DHT22;42455;51.660;5.824;2022-10-01T19:54:11;15.7;89.5
45383;DHT22;42455;51.660;5.824;2022-10-01T19:59:15;15.7;89.5
45383;DHT22;42455;51.660;5.824;2022-10-01T20:04:29;15.6;89.5
45383;DHT22;42455;51.660;5.824;2022-10-01T20:09:26;15.6;89.5
45383;DHT22;42455;51.660;5.824;2022-10-01T20:14:44;15.5;90.0
45383;DHT22;42455;51.660;5.824;2022-10-01T20:19:53;15.5;90.0
45383;DHT22;42455;51.660;5.824;2022-10-01T20:25:20;15.5;90.0
45383;DHT22;42455;51.660;5.824;2022-10-01T20:30:19;15.4;90.0
45383;DHT22;42455;51.660;5.824;2022-10-01T20:35:08;15.4;90.0
45383;DHT22;42455;51.660;5.824;2022-10-01T20:40:17;15.4;90.0
45383;DHT22;42455;51.660;5.824;2022-10-01T20:45:13;15.3;90.5
45383;DHT22;42455;51.660;5.824;2022-10-01T20:50:27;15.3;90.5
45383;DHT22;42455;51.660;5.824;2022-10-01T20:55:25;15.3;90.5
45383;DHT22;42455;51.660;5.824;2022-10-01T21:00:27;15.2;91.0
45383;DHT22;42455;51.660;5.824;2022-10-01T21:05:35;15.2;91.0
45383;DHT22;42455;51.660;5.824;2022-10-01T21:10:45;15.2;91.0
45383;DHT22;42455;51.660;5.824;2022-10-01T21:15:52;15.1;91.0
45383;DHT22;42455;51.660;5.824;2022-10-01T21:21:08;15.1;91.0
45383;DHT22;42455;51.660;5.824;2022-10-01T21:26:50;15.0;91.0
45383;DHT22;42455;51.660;5.824;2022-10-01T21:31:39;15.0;91.5
45383;DHT22;42455;51.660;5.824;2022-10-01T21:36:36;15.0;91.5
45383;DHT22;42455;51.660;5.824;2022-10-01T21:41:39;14.9;91.5
45383;DHT22;42455;51.660;5.824;2022-10-01T21:47:20;14.9;92.0
45383;DHT22;42455;51.660;5.824;2022-10-01T21:52:33;14.9;92.0
45383;DHT22;42455;51.660;5.824;2022-10-01T21:58:48;14.9;92.0
45383;DHT22;42455;51.660;5.824;2022-10-01T22:01:51;14.9;92.5
45383;DHT22;42455;51.660;5.824;2022-10-01T22:06:54;14.9;92.5
45383;DHT22;42455;51.660;5.824;2022-10-01T22:11:54;14.9;92.5
45383;DHT22;42455;51.660;5.824;2022-10-01T22:17:00;14.9;93.0
45383;DHT22;42455;51.660;5.824;2022-10-01T22:22:08;14.9;93.0
45383;DHT22;42455;51.660;5.824;2022-10-01T22:27:14;14.9;93.0
45383;DHT22;42455;51.660;5.824;2022-10-01T22:32:20;14.9;93.0
45383;DHT22;42455;51.660;5.824;2022-10-01T22:37:38;14.9;93.5
45383;DHT22;42455;51.660;5.824;2022-10-01T22:42:31;14.9;93.5
45383;DHT22;42455;51.660;5.824;2022-10-01T22:47:44;14.9;94.0
45383;DHT22;42455;51.660;5.824;2022-10-01T22:53:35;15.0;94.0
45383;DHT22;42455;51.660;5.824;2022-10-01T22:58:31;15.0;94.5
45383;DHT22;42455;51.660;5.824;2022-10-01T23:03:02;15.0;94.5
45383;DHT22;42455;51.660;5.824;2022-10-01T23:08:47;15.1;94.5
45383;DHT22;42455;51.660;5.824;2022-10-01T23:13:18;15.1;94.5
45383;DHT22;42455;51.660;5.824;2022-10-01T23:18:35;15.1;94.5
45383;DHT22;42455;51.660;5.824;2022-10-01T23:23:33;15.1;94.5
45383;DHT22;42455;51.660;5.824;2022-10-01T23:29:32;15.1;94.5
45383;DHT22;42455;51.660;5.824;2022-10-01T23:34:21;15.1;95.0
45383;DHT22;42455;51.660;5.824;2022-10-01T23:39:46;15.2;95.0
45383;DHT22;42455;51.660;5.824;2022-10-01T23:43:44;15.2;95.0
45383;DHT22;42455;51.660;5.824;2022-10-01T23:48:57;15.2;95.5
45383;DHT22;42455;51.660;5.824;2022-10-01T23:54:01;15.3;95.5
45383;DHT22;42455;51.660;5.824;2022-10-01T23:59:02;15.3;95.5
